sensor_id;sensor_type;location;lat;lon;timestamp;pressure;altitude;pressure_sealevel;temperature;humidity
18436;BME280;9346;52.006;4.720;2023-05-29T00:01:42;102342.78;;;13.07;100.00
18436;BME280;9346;52.006;4.720;2023-05-29T00:04:10;102336.66;;;13.05;100.00
18436;BME280;9346;52.006;4.720;2023-05-29T00:06:37;102333.59;;;13.02;100.00
18436;BME280;9346;52.006;4.720;2023-05-29T00:09:04;102329.63;;;12.98;100.00
18436;BME280;9346;52.006;4.720;2023-05-29T00:11:31;102333.47;;;12.97;100.00
18436;BME280;9346;52.006;4.720;2023-05-29T00:13:58;102331.31;;;12.99;100.00
18436;BME280;9346;52.006;4.720;2023-05-29T00:16:25;102329.41;;;12.99;100.00
18436;BME280;9346;52.006;4.720;2023-05-29T00:18:52;102328.78;;;12.97;100.00
18436;BME280;9346;52.006;4.720;2023-05-29T00:21:21;102323.25;;;12.97;100.00
18436;BME280;9346;52.006;4.720;2023-05-29T00:23:48;102327.47;;;13.00;100.00
18436;BME280;9346;52.006;4.720;2023-05-29T00:26:15;102331.06;;;13.00;100.00
18436;BME280;9346;52.006;4.720;2023-05-29T00:28:42;102328.03;;;13.02;100.00
18436;BME280;9346;52.006;4.720;2023-05-29T00:31:09;102328.66;;;13.04;100.00
18436;BME280;9346;52.006;4.720;2023-05-29T00:33:37;102325.88;;;13.04;100.00
18436;BME280;9346;52.006;4.720;2023-05-29T00:36:04;102341.50;;;12.98;100.00
18436;BME280;9346;52.006;4.720;2023-05-29T00:38:33;102337.06;;;12.97;100.00
18436;BME280;9346;52.006;4.720;2023-05-29T00:41:00;102345.03;;;12.94;100.00
18436;BME280;9346;52.006;4.720;2023-05-29T00:43:27;102346.38;;;12.91;100.00
18436;BME280;9346;52.006;4.720;2023-05-29T00:45:55;102348.59;;;12.89;100.00
18436;BME280;9346;52.006;4.720;2023-05-29T00:48:22;102364.25;;;12.84;100.00
18436;BME280;9346;52.006;4.720;2023-05-29T00:50:49;102360.56;;;12.78;100.00
18436;BME280;9346;52.006;4.720;2023-05-29T00:53:17;102367.19;;;12.77;100.00
18436;BME280;9346;52.006;4.720;2023-05-29T00:55:46;102372.88;;;12.71;100.00
18436;BME280;9346;52.006;4.720;2023-05-29T00:58:13;102366.06;;;12.62;100.00
18436;BME280;9346;52.006;4.720;2023-05-29T01:00:41;102366.38;;;12.60;100.00
18436;BME280;9346;52.006;4.720;2023-05-29T01:03:08;102364.66;;;12.59;100.00
18436;BME280;9346;52.006;4.720;2023-05-29T01:05:35;102368.09;;;12.66;100.00
18436;BME280;9346;52.006;4.720;2023-05-29T01:08:03;102368.19;;;12.71;100.00
18436;BME280;9346;52.006;4.720;2023-05-29T01:10:29;102375.88;;;12.69;100.00
18436;BME280;9346;52.006;4.720;2023-05-29T01:13:03;102369.53;;;12.69;100.00
18436;BME280;9346;52.006;4.720;2023-05-29T01:15:37;102371.47;;;12.68;100.00
18436;BME280;9346;52.006;4.720;2023-05-29T01:18:30;102365.94;;;12.68;100.00
18436;BME280;9346;52.006;4.720;2023-05-29T01:21:05;102375.88;;;12.69;100.00
18436;BME280;9346;52.006;4.720;2023-05-29T01:23:56;102376.88;;;12.63;100.00
18436;BME280;9346;52.006;4.720;2023-05-29T01:26:51;102375.66;;;12.54;100.00
18436;BME280;9346;52.006;4.720;2023-05-29T01:29:22;102377.72;;;12.47;100.00
18436;BME280;9346;52.006;4.720;2023-05-29T01:31:50;102381.94;;;12.50;100.00
18436;BME280;9346;52.006;4.720;2023-05-29T01:34:18;102389.97;;;12.51;100.00
18436;BME280;9346;52.006;4.720;2023-05-29T01:36:45;102394.56;;;12.46;100.00
18436;BME280;9346;52.006;4.720;2023-05-29T01:39:13;102385.44;;;12.45;100.00
18436;BME280;9346;52.006;4.720;2023-05-29T01:41:40;102386.59;;;12.49;100.00
18436;BME280;9346;52.006;4.720;2023-05-29T01:44:10;102384.69;;;12.50;100.00
18436;BME280;9346;52.006;4.720;2023-05-29T01:46:39;102391.03;;;12.50;100.00
18436;BME280;9346;52.006;4.720;2023-05-29T01:49:08;102389.13;;;12.51;100.00
18436;BME280;9346;52.006;4.720;2023-05-29T01:51:36;102398.84;;;12.53;100.00
18436;BME280;9346;52.006;4.720;2023-05-29T01:54:03;102393.81;;;12.50;100.00
18436;BME280;9346;52.006;4.720;2023-05-29T01:56:31;102396.00;;;12.48;100.00
18436;BME280;9346;52.006;4.720;2023-05-29T01:58:58;102397.66;;;12.49;100.00
18436;BME280;9346;52.006;4.720;2023-05-29T02:01:29;102393.22;;;12.48;100.00
18436;BME280;9346;52.006;4.720;2023-05-29T02:03:56;102396.81;;;12.49;100.00
18436;BME280;9346;52.006;4.720;2023-05-29T02:06:23;102394.66;;;12.51;100.00
18436;BME280;9346;52.006;4.720;2023-05-29T02:08:50;102400.53;;;12.54;100.00
18436;BME280;9346;52.006;4.720;2023-05-29T02:11:17;102401.03;;;12.51;100.00
18436;BME280;9346;52.006;4.720;2023-05-29T02:13:43;102402.34;;;12.49;100.00
18436;BME280;9346;52.006;4.720;2023-05-29T02:16:10;102400.34;;;12.44;100.00
18436;BME280;9346;52.006;4.720;2023-05-29T02:18:39;102397.00;;;12.42;100.00
18436;BME280;9346;52.006;4.720;2023-05-29T02:21:06;102399.91;;;12.36;100.00
18436;BME280;9346;52.006;4.720;2023-05-29T02:23:33;102404.34;;;12.37;100.00
18436;BME280;9346;52.006;4.720;2023-05-29T02:26:01;102393.06;;;12.38;100.00
18436;BME280;9346;52.006;4.720;2023-05-29T02:28:27;102393.56;;;12.35;100.00
18436;BME280;9346;52.006;4.720;2023-05-29T02:30:55;102400.13;;;12.34;100.00
18436;BME280;9346;52.006;4.720;2023-05-29T02:33:22;102392.94;;;12.33;100.00
18436;BME280;9346;52.006;4.720;2023-05-29T02:35:50;102390.19;;;12.33;100.00
18436;BME280;9346;52.006;4.720;2023-05-29T02:38:17;102392.94;;;12.33;100.00
18436;BME280;9346;52.006;4.720;2023-05-29T02:40:46;102398.97;;;12.30;100.00
18436;BME280;9346;52.006;4.720;2023-05-29T02:43:13;102397.19;;;12.24;100.00
18436;BME280;9346;52.006;4.720;2023-05-29T02:45:40;102392.28;;;12.26;100.00
18436;BME280;9346;52.006;4.720;2023-05-29T02:48:07;102391.78;;;12.29;100.00
18436;BME280;9346;52.006;4.720;2023-05-29T02:50:34;102385.91;;;12.26;100.00
18436;BME280;9346;52.006;4.720;2023-05-29T02:53:02;102399.63;;;12.21;100.00
18436;BME280;9346;52.006;4.720;2023-05-29T02:55:29;102405.66;;;12.18;100.00
18436;BME280;9346;52.006;4.720;2023-05-29T02:58:01;102404.81;;;12.17;100.00
18436;BME280;9346;52.006;4.720;2023-05-29T03:00:28;102405.28;;;12.14;100.00
18436;BME280;9346;52.006;4.720;2023-05-29T03:02:55;102403.13;;;12.16;100.00
18436;BME280;9346;52.006;4.720;2023-05-29T03:05:22;102407.47;;;12.12;100.00
18436;BME280;9346;52.006;4.720;2023-05-29T03:07:49;102402.69;;;12.08;100.00
18436;BME280;9346;52.006;4.720;2023-05-29T03:10:18;102408.47;;;12.06;100.00
18436;BME280;9346;52.006;4.720;2023-05-29T03:12:46;102422.03;;;12.08;100.00
18436;BME280;9346;52.006;4.720;2023-05-29T03:15:13;102405.47;;;12.08;100.00
18436;BME280;9346;52.006;4.720;2023-05-29T03:17:41;102411.81;;;12.08;100.00
18436;BME280;9346;52.006;4.720;2023-05-29T03:20:08;102409.03;;;12.08;100.00
18436;BME280;9346;52.006;4.720;2023-05-29T03:22:36;102408.22;;;12.08;100.00
18436;BME280;9346;52.006;4.720;2023-05-29T03:25:03;102402.34;;;12.04;100.00
18436;BME280;9346;52.006;4.720;2023-05-29T03:27:31;102399.34;;;12.06;100.00
18436;BME280;9346;52.006;4.720;2023-05-29T03:29:59;102399.56;;;12.04;100.00
18436;BME280;9346;52.006;4.720;2023-05-29T03:32:26;102395.63;;;12.00;100.00
18436;BME280;9346;52.006;4.720;2023-05-29T03:34:53;102395.63;;;12.00;100.00
18436;BME280;9346;52.006;4.720;2023-05-29T03:37:20;102398.03;;;11.97;100.00
18436;BME280;9346;52.006;4.720;2023-05-29T03:39:47;102397.22;;;11.96;100.00
18436;BME280;9346;52.006;4.720;2023-05-29T03:42:14;102399.13;;;11.96;100.00
18436;BME280;9346;52.006;4.720;2023-05-29T03:44:43;102404.06;;;11.94;100.00
18436;BME280;9346;52.006;4.720;2023-05-29T03:47:10;102405.38;;;11.91;100.00
18436;BME280;9346;52.006;4.720;2023-05-29T03:49:37;102416.44;;;11.91;100.00
18436;BME280;9346;52.006;4.720;2023-05-29T03:52:04;102424.34;;;11.88;100.00
18436;BME280;9346;52.006;4.720;2023-05-29T03:54:32;102421.97;;;11.91;100.00
18436;BME280;9346;52.006;4.720;2023-05-29T03:57:21;102413.91;;;11.90;100.00
18436;BME280;9346;52.006;4.720;2023-05-29T03:59:53;102418.50;;;11.84;100.00
18436;BME280;9346;52.006;4.720;2023-05-29T04:02:20;102415.75;;;11.84;100.00
18436;BME280;9346;52.006;4.720;2023-05-29T04:04:46;102411.88;;;11.85;100.00
18436;BME280;9346;52.006;4.720;2023-05-29T04:07:13;102418.00;;;11.87;100.00
18436;BME280;9346;52.006;4.720;2023-05-29T04:09:42;102417.16;;;11.87;100.00
18436;BME280;9346;52.006;4.720;2023-05-29T04:12:09;102418.50;;;11.84;100.00
18436;BME280;9346;52.006;4.720;2023-05-29T04:14:38;102420.41;;;11.84;100.00
18436;BME280;9346;52.006;4.720;2023-05-29T04:17:07;102426.78;;;11.84;100.00
18436;BME280;9346;52.006;4.720;2023-05-29T04:19:34;102416.84;;;11.83;100.00
18436;BME280;9346;52.006;4.720;2023-05-29T04:22:01;102423.66;;;11.81;100.00
18436;BME280;9346;52.006;4.720;2023-05-29T04:24:28;102426.44;;;11.81;100.00
18436;BME280;9346;52.006;4.720;2023-05-29T04:26:56;102434.94;;;11.79;100.00
18436;BME280;9346;52.006;4.720;2023-05-29T04:29:25;102428.47;;;11.85;100.00
18436;BME280;9346;52.006;4.720;2023-05-29T04:31:53;102434.22;;;11.84;100.00
18436;BME280;9346;52.006;4.720;2023-05-29T04:34:22;102429.56;;;11.84;100.00
18436;BME280;9346;52.006;4.720;2023-05-29T04:36:49;102428.13;;;11.82;100.00
18436;BME280;9346;52.006;4.720;2023-05-29T04:39:16;102441.69;;;11.83;100.00
18436;BME280;9346;52.006;4.720;2023-05-29T04:41:43;102443.34;;;11.84;100.00
18436;BME280;9346;52.006;4.720;2023-05-29T04:44:10;102443.09;;;11.86;100.00
18436;BME280;9346;52.006;4.720;2023-05-29T04:46:36;102441.53;;;11.90;100.00
18436;BME280;9346;52.006;4.720;2023-05-29T04:49:04;102449.56;;;11.91;100.00
18436;BME280;9346;52.006;4.720;2023-05-29T04:51:32;102447.28;;;11.88;100.00
18436;BME280;9346;52.006;4.720;2023-05-29T04:53:59;102451.25;;;11.92;100.00
18436;BME280;9346;52.006;4.720;2023-05-29T04:56:26;102454.13;;;11.97;100.00
18436;BME280;9346;52.006;4.720;2023-05-29T04:58:53;102451.59;;;11.96;100.00
18436;BME280;9346;52.006;4.720;2023-05-29T05:01:20;102447.19;;;11.95;100.00
18436;BME280;9346;52.006;4.720;2023-05-29T05:03:47;102452.09;;;11.93;100.00
18436;BME280;9346;52.006;4.720;2023-05-29T05:06:14;102455.47;;;11.95;100.00
18436;BME280;9346;52.006;4.720;2023-05-29T05:08:44;102454.47;;;12.01;100.00
18436;BME280;9346;52.006;4.720;2023-05-29T05:11:11;102452.78;;;12.00;100.00
18436;BME280;9346;52.006;4.720;2023-05-29T05:13:39;102452.28;;;12.03;100.00
18436;BME280;9346;52.006;4.720;2023-05-29T05:16:06;102457.81;;;12.03;100.00
18436;BME280;9346;52.006;4.720;2023-05-29T05:18:33;102458.19;;;12.06;100.00
18436;BME280;9346;52.006;4.720;2023-05-29T05:21:00;102456.00;;;12.08;100.00
18436;BME280;9346;52.006;4.720;2023-05-29T05:23:28;102461.28;;;12.10;100.00
18436;BME280;9346;52.006;4.720;2023-05-29T05:25:57;102459.72;;;12.14;100.00
18436;BME280;9346;52.006;4.720;2023-05-29T05:28:24;102463.41;;;12.19;100.00
18436;BME280;9346;52.006;4.720;2023-05-29T05:30:50;102460.25;;;12.27;100.00
18436;BME280;9346;52.006;4.720;2023-05-29T05:33:17;102463.63;;;12.29;100.00
18436;BME280;9346;52.006;4.720;2023-05-29T05:35:44;102473.44;;;12.37;100.00
18436;BME280;9346;52.006;4.720;2023-05-29T05:38:11;102469.44;;;12.44;100.00
18436;BME280;9346;52.006;4.720;2023-05-29T05:40:39;102466.88;;;12.54;100.00
18436;BME280;9346;52.006;4.720;2023-05-29T05:43:07;102459.31;;;12.66;100.00
18436;BME280;9346;52.006;4.720;2023-05-29T05:45:34;102472.09;;;12.67;100.00
18436;BME280;9346;52.006;4.720;2023-05-29T05:48:03;102470.50;;;12.71;100.00
18436;BME280;9346;52.006;4.720;2023-05-29T05:50:30;102472.84;;;12.79;100.00
18436;BME280;9346;52.006;4.720;2023-05-29T05:52:57;102474.59;;;12.85;100.00
18436;BME280;9346;52.006;4.720;2023-05-29T05:55:23;102477.38;;;12.85;100.00
18436;BME280;9346;52.006;4.720;2023-05-29T05:57:51;102481.84;;;12.86;100.00
18436;BME280;9346;52.006;4.720;2023-05-29T06:00:22;102484.78;;;12.96;100.00
18436;BME280;9346;52.006;4.720;2023-05-29T06:02:49;102476.81;;;13.00;100.00
18436;BME280;9346;52.006;4.720;2023-05-29T06:05:16;102478.13;;;12.97;100.00
18436;BME280;9346;52.006;4.720;2023-05-29T06:07:43;102489.22;;;12.97;100.00
18436;BME280;9346;52.006;4.720;2023-05-29T06:10:10;102481.59;;;13.04;100.00
18436;BME280;9346;52.006;4.720;2023-05-29T06:12:38;102479.84;;;13.15;100.00
18436;BME280;9346;52.006;4.720;2023-05-29T06:15:06;102487.47;;;13.24;100.00
18436;BME280;9346;52.006;4.720;2023-05-29T06:17:35;102480.41;;;13.33;100.00
18436;BME280;9346;52.006;4.720;2023-05-29T06:20:02;102486.88;;;13.39;100.00
18436;BME280;9346;52.006;4.720;2023-05-29T06:22:34;102480.91;;;13.47;100.00
18436;BME280;9346;52.006;4.720;2023-05-29T06:25:01;102479.06;;;13.52;100.00
18436;BME280;9346;52.006;4.720;2023-05-29T06:27:28;102472.75;;;13.57;100.00
18436;BME280;9346;52.006;4.720;2023-05-29T06:29:55;102477.59;;;13.67;100.00
18436;BME280;9346;52.006;4.720;2023-05-29T06:32:22;102478.28;;;13.74;100.00
18436;BME280;9346;52.006;4.720;2023-05-29T06:34:51;102477.22;;;13.80;100.00
18436;BME280;9346;52.006;4.720;2023-05-29T06:37:17;102470.38;;;13.66;100.00
18436;BME280;9346;52.006;4.720;2023-05-29T06:39:46;102475.91;;;13.66;100.00
18436;BME280;9346;52.006;4.720;2023-05-29T06:42:13;102479.47;;;13.83;100.00
18436;BME280;9346;52.006;4.720;2023-05-29T06:44:40;102475.63;;;13.84;100.00
18436;BME280;9346;52.006;4.720;2023-05-29T06:47:07;102482.72;;;13.96;100.00
18436;BME280;9346;52.006;4.720;2023-05-29T06:49:33;102483.59;;;14.02;100.00
18436;BME280;9346;52.006;4.720;2023-05-29T06:52:02;102487.03;;;14.09;100.00
18436;BME280;9346;52.006;4.720;2023-05-29T06:54:29;102497.22;;;14.03;100.00
18436;BME280;9346;52.006;4.720;2023-05-29T06:56:56;102492.56;;;14.09;100.00
18436;BME280;9346;52.006;4.720;2023-05-29T06:59:22;102498.19;;;14.14;100.00
18436;BME280;9346;52.006;4.720;2023-05-29T07:01:50;102491.94;;;14.23;100.00
18436;BME280;9346;52.006;4.720;2023-05-29T07:04:16;102499.03;;;14.36;100.00
18436;BME280;9346;52.006;4.720;2023-05-29T07:06:44;102508.25;;;14.41;100.00
18436;BME280;9346;52.006;4.720;2023-05-29T07:09:13;102498.13;;;14.52;100.00
18436;BME280;9346;52.006;4.720;2023-05-29T07:11:40;102504.88;;;14.61;100.00
18436;BME280;9346;52.006;4.720;2023-05-29T07:14:07;102497.91;;;14.58;100.00
18436;BME280;9346;52.006;4.720;2023-05-29T07:16:35;102491.00;;;14.61;100.00
18436;BME280;9346;52.006;4.720;2023-05-29T07:19:02;102499.53;;;14.54;100.00
18436;BME280;9346;52.006;4.720;2023-05-29T07:21:29;102504.56;;;14.57;100.00
18436;BME280;9346;52.006;4.720;2023-05-29T07:23:56;102513.03;;;14.72;100.00
18436;BME280;9346;52.006;4.720;2023-05-29T07:26:24;102505.03;;;14.76;100.00
18436;BME280;9346;52.006;4.720;2023-05-29T07:28:51;102507.84;;;14.54;100.00
18436;BME280;9346;52.006;4.720;2023-05-29T07:31:18;102507.00;;;14.54;100.00
18436;BME280;9346;52.006;4.720;2023-05-29T07:33:45;102502.97;;;14.40;100.00
18436;BME280;9346;52.006;4.720;2023-05-29T07:36:15;102524.13;;;14.24;100.00
18436;BME280;9346;52.006;4.720;2023-05-29T07:38:41;102518.22;;;14.21;100.00
18436;BME280;9346;52.006;4.720;2023-05-29T07:41:09;102509.91;;;14.21;100.00
18436;BME280;9346;52.006;4.720;2023-05-29T07:43:38;102511.28;;;14.18;100.00
18436;BME280;9346;52.006;4.720;2023-05-29T07:46:05;102513.19;;;14.18;100.00
18436;BME280;9346;52.006;4.720;2023-05-29T07:48:33;102519.50;;;14.13;100.00
18436;BME280;9346;52.006;4.720;2023-05-29T07:50:59;102512.75;;;14.04;100.00
18436;BME280;9346;52.006;4.720;2023-05-29T07:53:26;102516.81;;;14.18;100.00
18436;BME280;9346;52.006;4.720;2023-05-29T07:55:53;102520.88;;;14.32;100.00
18436;BME280;9346;52.006;4.720;2023-05-29T07:58:20;102518.81;;;14.44;100.00
18436;BME280;9346;52.006;4.720;2023-05-29T08:00:49;102516.88;;;14.23;100.00
18436;BME280;9346;52.006;4.720;2023-05-29T08:03:16;102524.50;;;14.11;100.00
18436;BME280;9346;52.006;4.720;2023-05-29T08:05:43;102522.03;;;14.15;100.00
18436;BME280;9346;52.006;4.720;2023-05-29T08:08:10;102520.25;;;14.25;100.00
18436;BME280;9346;52.006;4.720;2023-05-29T08:10:37;102519.22;;;14.31;100.00
18436;BME280;9346;52.006;4.720;2023-05-29T08:13:04;102528.56;;;14.47;100.00
18436;BME280;9346;52.006;4.720;2023-05-29T08:15:31;102520.94;;;14.59;100.00
18436;BME280;9346;52.006;4.720;2023-05-29T08:18:01;102519.56;;;14.61;100.00
18436;BME280;9346;52.006;4.720;2023-05-29T08:20:28;102525.09;;;14.35;100.00
18436;BME280;9346;52.006;4.720;2023-05-29T08:22:56;102529.19;;;14.32;100.00
18436;BME280;9346;52.006;4.720;2023-05-29T08:25:23;102529.41;;;14.26;100.00
18436;BME280;9346;52.006;4.720;2023-05-29T08:27:50;102544.03;;;14.43;100.00
18436;BME280;9346;52.006;4.720;2023-05-29T08:30:17;102540.88;;;14.34;100.00
18436;BME280;9346;52.006;4.720;2023-05-29T08:32:44;102536.22;;;14.18;100.00
18436;BME280;9346;52.006;4.720;2023-05-29T08:35:12;102533.56;;;14.07;100.00
18436;BME280;9346;52.006;4.720;2023-05-29T08:37:39;102532.47;;;14.08;100.00
18436;BME280;9346;52.006;4.720;2023-05-29T08:40:07;102527.63;;;14.20;100.00
18436;BME280;9346;52.006;4.720;2023-05-29T08:42:37;102535.00;;;14.31;100.00
18436;BME280;9346;52.006;4.720;2023-05-29T08:45:08;102539.84;;;14.40;100.00
18436;BME280;9346;52.006;4.720;2023-05-29T08:47:40;102530.28;;;14.53;100.00
18436;BME280;9346;52.006;4.720;2023-05-29T08:50:07;102540.72;;;14.67;100.00
18436;BME280;9346;52.006;4.720;2023-05-29T08:52:37;102536.06;;;14.73;100.00
18436;BME280;9346;52.006;4.720;2023-05-29T08:55:06;102557.69;;;14.71;100.00
18436;BME280;9346;52.006;4.720;2023-05-29T08:57:34;102560.09;;;14.62;100.00
18436;BME280;9346;52.006;4.720;2023-05-29T09:00:03;102549.19;;;14.56;100.00
18436;BME280;9346;52.006;4.720;2023-05-29T09:02:37;102551.91;;;14.51;100.00
18436;BME280;9346;52.006;4.720;2023-05-29T09:05:05;102554.13;;;14.54;100.00
18436;BME280;9346;52.006;4.720;2023-05-29T09:07:35;102570.22;;;14.52;100.00
18436;BME280;9346;52.006;4.720;2023-05-29T09:10:05;102556.78;;;14.44;100.00
18436;BME280;9346;52.006;4.720;2023-05-29T09:12:32;102571.25;;;14.46;100.00
18436;BME280;9346;52.006;4.720;2023-05-29T09:15:00;102550.72;;;14.47;100.00
18436;BME280;9346;52.006;4.720;2023-05-29T09:17:30;102552.16;;;14.49;100.00
18436;BME280;9346;52.006;4.720;2023-05-29T09:19:59;102551.19;;;14.60;100.00
18436;BME280;9346;52.006;4.720;2023-05-29T09:22:26;102558.34;;;14.56;100.00
18436;BME280;9346;52.006;4.720;2023-05-29T09:24:55;102553.63;;;14.57;100.00
18436;BME280;9346;52.006;4.720;2023-05-29T09:27:24;102564.28;;;14.65;100.00
18436;BME280;9346;52.006;4.720;2023-05-29T09:33:14;102554.44;;;14.79;100.00
18436;BME280;9346;52.006;4.720;2023-05-29T09:35:43;102555.81;;;14.76;100.00
18436;BME280;9346;52.006;4.720;2023-05-29T09:38:12;102552.31;;;14.64;100.00
18436;BME280;9346;52.006;4.720;2023-05-29T09:40:41;102552.13;;;14.71;100.00
18436;BME280;9346;52.006;4.720;2023-05-29T09:43:11;102534.31;;;14.67;100.00
18436;BME280;9346;52.006;4.720;2023-05-29T09:45:39;102552.44;;;14.74;100.00
18436;BME280;9346;52.006;4.720;2023-05-29T09:48:07;102546.47;;;14.87;100.00
18436;BME280;9346;52.006;4.720;2023-05-29T09:50:35;102547.69;;;14.96;100.00
18436;BME280;9346;52.006;4.720;2023-05-29T09:53:02;102544.22;;;15.11;100.00
18436;BME280;9346;52.006;4.720;2023-05-29T09:55:31;102532.47;;;15.30;100.00
18436;BME280;9346;52.006;4.720;2023-05-29T09:58:01;102542.47;;;15.31;100.00
18436;BME280;9346;52.006;4.720;2023-05-29T10:00:28;102543.59;;;15.35;100.00
18436;BME280;9346;52.006;4.720;2023-05-29T10:02:56;102531.94;;;15.33;100.00
18436;BME280;9346;52.006;4.720;2023-05-29T10:05:23;102536.13;;;15.36;100.00
18436;BME280;9346;52.006;4.720;2023-05-29T10:07:53;102530.09;;;15.44;100.00
18436;BME280;9346;52.006;4.720;2023-05-29T10:10:21;102532.31;;;15.42;100.00
18436;BME280;9346;52.006;4.720;2023-05-29T10:12:53;102542.78;;;15.35;100.00
18436;BME280;9346;52.006;4.720;2023-05-29T10:15:23;102535.03;;;15.37;100.00
18436;BME280;9346;52.006;4.720;2023-05-29T10:17:59;102534.56;;;15.45;100.00
18436;BME280;9346;52.006;4.720;2023-05-29T10:20:28;102541.84;;;15.51;100.00
18436;BME280;9346;52.006;4.720;2023-05-29T10:22:59;102546.84;;;15.54;100.00
18436;BME280;9346;52.006;4.720;2023-05-29T10:25:29;102544.06;;;15.54;100.00
18436;BME280;9346;52.006;4.720;2023-05-29T10:27:58;102542.84;;;15.40;100.00
18436;BME280;9346;52.006;4.720;2023-05-29T10:30:33;102538.16;;;15.45;100.00
18436;BME280;9346;52.006;4.720;2023-05-29T10:33:22;102539.59;;;15.53;100.00
18436;BME280;9346;52.006;4.720;2023-05-29T10:36:03;102542.44;;;15.58;100.00
18436;BME280;9346;52.006;4.720;2023-05-29T10:38:32;102543.25;;;15.58;100.00
18436;BME280;9346;52.006;4.720;2023-05-29T10:41:29;102530.19;;;15.54;100.00
18436;BME280;9346;52.006;4.720;2023-05-29T10:43:57;102530.72;;;15.51;100.00
18436;BME280;9346;52.006;4.720;2023-05-29T10:47:03;102531.78;;;15.45;100.00
18436;BME280;9346;52.006;4.720;2023-05-29T10:49:31;102516.56;;;15.52;100.00
18436;BME280;9346;52.006;4.720;2023-05-29T10:52:00;102530.13;;;15.49;100.00
18436;BME280;9346;52.006;4.720;2023-05-29T10:54:27;102524.91;;;15.52;100.00
18436;BME280;9346;52.006;4.720;2023-05-29T10:56:55;102524.84;;;15.47;100.00
18436;BME280;9346;52.006;4.720;2023-05-29T10:59:23;102512.97;;;15.57;100.00
18436;BME280;9346;52.006;4.720;2023-05-29T11:01:53;102522.25;;;15.73;100.00
18436;BME280;9346;52.006;4.720;2023-05-29T11:04:28;102530.06;;;15.76;100.00
18436;BME280;9346;52.006;4.720;2023-05-29T11:06:57;102536.16;;;15.73;100.00
18436;BME280;9346;52.006;4.720;2023-05-29T11:09:29;102525.59;;;15.75;100.00
18436;BME280;9346;52.006;4.720;2023-05-29T11:12:14;102514.19;;;15.76;100.00
18436;BME280;9346;52.006;4.720;2023-05-29T11:14:54;102517.28;;;15.80;100.00
18436;BME280;9346;52.006;4.720;2023-05-29T11:17:32;102517.03;;;15.86;100.00
18436;BME280;9346;52.006;4.720;2023-05-29T11:20:06;102525.47;;;16.01;100.00
18436;BME280;9346;52.006;4.720;2023-05-29T11:22:48;102521.31;;;16.04;100.00
18436;BME280;9346;52.006;4.720;2023-05-29T11:25:21;102521.38;;;16.19;100.00
18436;BME280;9346;52.006;4.720;2023-05-29T11:27:49;102527.00;;;16.29;100.00
18436;BME280;9346;52.006;4.720;2023-05-29T11:30:17;102531.97;;;16.22;100.00
18436;BME280;9346;52.006;4.720;2023-05-29T11:32:46;102525.88;;;16.25;100.00
18436;BME280;9346;52.006;4.720;2023-05-29T11:35:17;102546.19;;;16.25;100.00
18436;BME280;9346;52.006;4.720;2023-05-29T11:37:49;102523.34;;;16.28;100.00
18436;BME280;9346;52.006;4.720;2023-05-29T11:40:16;102538.38;;;16.22;100.00
18436;BME280;9346;52.006;4.720;2023-05-29T11:42:45;102527.53;;;16.26;100.00
18436;BME280;9346;52.006;4.720;2023-05-29T11:45:14;102532.59;;;16.39;100.00
18436;BME280;9346;52.006;4.720;2023-05-29T11:47:52;102531.19;;;16.36;100.00
18436;BME280;9346;52.006;4.720;2023-05-29T11:50:22;102527.59;;;16.41;100.00
18436;BME280;9346;52.006;4.720;2023-05-29T11:53:00;102535.16;;;16.45;100.00
18436;BME280;9346;52.006;4.720;2023-05-29T11:55:29;102539.09;;;16.59;100.00
18436;BME280;9346;52.006;4.720;2023-05-29T11:57:57;102531.31;;;16.66;100.00
18436;BME280;9346;52.006;4.720;2023-05-29T12:00:28;102536.34;;;16.64;100.00
18436;BME280;9346;52.006;4.720;2023-05-29T12:02:58;102527.69;;;16.61;100.00
18436;BME280;9346;52.006;4.720;2023-05-29T12:05:47;102531.03;;;16.58;100.00
18436;BME280;9346;52.006;4.720;2023-05-29T12:08:21;102529.31;;;16.52;100.00
18436;BME280;9346;52.006;4.720;2023-05-29T12:10:48;102526.28;;;16.63;100.00
18436;BME280;9346;52.006;4.720;2023-05-29T12:13:18;102521.03;;;16.67;100.00
18436;BME280;9346;52.006;4.720;2023-05-29T12:15:48;102524.63;;;16.62;100.00
18436;BME280;9346;52.006;4.720;2023-05-29T12:18:17;102525.22;;;16.74;100.00
18436;BME280;9346;52.006;4.720;2023-05-29T12:20:46;102520.78;;;16.88;100.00
18436;BME280;9346;52.006;4.720;2023-05-29T12:23:13;102522.78;;;16.98;100.00
18436;BME280;9346;52.006;4.720;2023-05-29T12:25:46;102525.84;;;17.06;100.00
18436;BME280;9346;52.006;4.720;2023-05-29T12:28:16;102516.38;;;17.12;100.00
18436;BME280;9346;52.006;4.720;2023-05-29T12:30:44;102513.56;;;16.97;100.00
18436;BME280;9346;52.006;4.720;2023-05-29T12:33:25;102510.78;;;16.97;100.00
18436;BME280;9346;52.006;4.720;2023-05-29T12:36:01;102513.56;;;16.97;100.00
18436;BME280;9346;52.006;4.720;2023-05-29T12:38:28;102508.53;;;16.89;100.00
18436;BME280;9346;52.006;4.720;2023-05-29T12:40:55;102508.28;;;16.86;100.00
18436;BME280;9346;52.006;4.720;2023-05-29T12:43:23;102520.81;;;16.98;100.00
18436;BME280;9346;52.006;4.720;2023-05-29T12:45:54;102520.56;;;17.15;100.00
18436;BME280;9346;52.006;4.720;2023-05-29T12:48:26;102514.97;;;17.15;100.00
18436;BME280;9346;52.006;4.720;2023-05-29T12:50:54;102523.06;;;17.06;100.00
18436;BME280;9346;52.006;4.720;2023-05-29T12:53:28;102523.06;;;17.06;100.00
18436;BME280;9346;52.006;4.720;2023-05-29T12:55:55;102521.94;;;16.97;100.00
18436;BME280;9346;52.006;4.720;2023-05-29T12:58:22;102519.41;;;16.96;100.00
18436;BME280;9346;52.006;4.720;2023-05-29T13:00:52;102524.72;;;17.07;100.00
18436;BME280;9346;52.006;4.720;2023-05-29T13:03:21;102517.75;;;17.00;100.00